»·PEaware :: N414ME KOXR-KSBA

N414ME :: KOXR-KSBA

FLIGHT INFORMATION

Flight Status: Arrived
Operator: Privately registered:
United States
More flights under this callsign
Pilot: Chris O. (28812)
Aircraft: Unknown
(DA62)
More flights by this aircraft type
Origin: KOXR Oxnard
United States
Destination: KSBA Santa Barbara Mun
United States
More flights between these airports :: More routes between these airports
Route: KWANG
File this flight plan on PilotEdge
Remarks: TEC route VTUP1
Altitude:
(Current/Filed)
4,000ft
Speed:
(Current/Filed)
150kts
Departed: 26-Jul-20 06:45 PM
Arrived: 26-Jul-20 07:25 PM
Distance/Time
Traveled:
34nm/0:40
Distance/Time
To Go:
Arrived

Flight Plot

Page will automatically refresh every two minutes.


Map Options




Map Legend


Flown Route
Filed Route
Departure Airport
Arrival Airport
Navaid (VOR, NDB)
Fix

Horizontal Profiles

Position Reports

Time Latitude Longitude Heading Altitude Ground
Speed
26-Jul-20 18:31 34.199036 -119.197937 290 47ft 0kts
26-Jul-20 18:32 34.199036 -119.197937 290 47ft 0kts
26-Jul-20 18:34 34.199036 -119.197937 290 47ft 0kts
26-Jul-20 18:35 34.199036 -119.197937 290 47ft 0kts
26-Jul-20 18:36 34.199036 -119.197937 290 47ft 0kts
26-Jul-20 18:37 34.199036 -119.197937 290 47ft 0kts
26-Jul-20 18:38 34.199036 -119.197937 290 47ft 0kts
26-Jul-20 18:39 34.199036 -119.197937 290 47ft 0kts
26-Jul-20 18:40 34.199036 -119.197937 290 47ft 0kts
26-Jul-20 18:41 34.199036 -119.197937 290 47ft 0kts
26-Jul-20 18:42 34.199036 -119.197937 290 47ft 0kts
26-Jul-20 18:43 34.199629 -119.197949 54 48ft 10kts
26-Jul-20 18:44 34.199927 -119.197569 17 48ft 0kts
26-Jul-20 18:45 34.200760 -119.201545 270 46ft 73kts
26-Jul-20 18:46 34.200109 -119.222157 266 794ft 92kts
26-Jul-20 18:47 34.199568 -119.252618 266 2172ft 94kts
26-Jul-20 18:48 34.200400 -119.282938 272 3535ft 91kts
26-Jul-20 18:48 34.214038 -119.308693 294 4008ft 124kts
26-Jul-20 18:50 34.233376 -119.355466 290 3885ft 143kts
26-Jul-20 18:51 34.253823 -119.399155 298 3586ft 143kts
26-Jul-20 18:52 34.273121 -119.434992 297 3480ft 114kts
26-Jul-20 18:52 34.286251 -119.462415 293 3478ft 113kts
26-Jul-20 18:53 34.301632 -119.497045 290 3530ft 122kts
26-Jul-20 18:54 34.317273 -119.534840 289 3185ft 126kts
26-Jul-20 18:55 34.332291 -119.574299 291 2234ft 128kts
26-Jul-20 18:56 34.346407 -119.609744 288 2159ft 109kts
26-Jul-20 18:57 34.359602 -119.642200 292 2099ft 105kts
26-Jul-20 18:58 34.372013 -119.675390 290 2143ft 113kts
26-Jul-20 18:59 34.385559 -119.711234 287 2130ft 118kts
26-Jul-20 19:00 34.399485 -119.743169 296 1639ft 97kts
26-Jul-20 19:01 34.408640 -119.772337 286 1175ft 95kts
26-Jul-20 19:02 34.419131 -119.801349 284 1106ft 94kts
26-Jul-20 19:03 34.428162 -119.831327 244 1226ft 89kts
26-Jul-20 19:04 34.406595 -119.851369 217 2284ft 109kts
26-Jul-20 19:05 34.396306 -119.883783 262 3530ft 118kts
26-Jul-20 19:06 34.400223 -119.926784 269 4103ft 134kts
26-Jul-20 19:07 34.403781 -119.973307 260 4020ft 134kts
26-Jul-20 19:08 34.395300 -120.015568 253 4108ft 128kts
26-Jul-20 19:09 34.386374 -120.056528 252 4064ft 117kts
26-Jul-20 19:10 34.377678 -120.094204 250 4005ft 115kts
26-Jul-20 19:11 34.369663 -120.131245 252 4001ft 111kts
26-Jul-20 19:12 34.363592 -120.168157 275 4054ft 114kts
26-Jul-20 19:13 34.389179 -120.166707 52 4058ft 131kts
26-Jul-20 19:14 34.413085 -120.131315 51 3564ft 142kts
26-Jul-20 19:15 34.423516 -120.090381 96 3529ft 132kts
26-Jul-20 19:16 34.424042 -120.046675 91 3316ft 117kts
26-Jul-20 19:17 34.424599 -120.007258 94 2522ft 118kts
26-Jul-20 19:18 34.424675 -119.969147 94 1957ft 109kts
26-Jul-20 19:19 34.425896 -119.931851 95 1341ft 108kts
26-Jul-20 19:20 34.425906 -119.895039 108 943ft 105kts
26-Jul-20 19:21 34.418496 -119.859581 99 931ft 110kts
26-Jul-20 19:22 34.419242 -119.823454 89 932ft 108kts
26-Jul-20 19:23 34.428594 -119.825637 256 276ft 80kts
26-Jul-20 19:24 34.427684 -119.845494 269 13ft 24kts
26-Jul-20 19:25 34.429085 -119.843963 64 14ft 16kts
26-Jul-20 19:26 34.429870 -119.841945 64 15ft 0kts
26-Jul-20 19:27 34.429870 -119.841945 64 15ft 0kts
26-Jul-20 19:28 34.431513 -119.837109 69 16ft 19kts

Navigation Log

Ident Type
Flight plan parsing failed, navigation log unavailable